Time;durP1;ratioP1;P1;durP2;ratioP2;P2;SDS_P1;SDS_P2;PMS_P1;PMS_P2;Temp;Humidity;BMP_temperature;BMP_pressure;BME280_temperature;BME280_humidity;BME280_pressure;Samples;Min_cycle;Max_cycle;Signal;HPM_P1;HPM_P2
2023/09/11 00:01:19;;;;;;;9.63;7.22;;;;;;;24.51;55.02;100859.50;5115162;28;20050;-79
2023/09/11 00:04:11;;;;;;;8.55;6.80;;;;;;;24.48;55.16;100865.09;5114910;28;20062;-80
2023/09/11 00:07:06;;;;;;;8.73;6.97;;;;;;;24.43;55.15;100859.97;5114938;28;20055;-79
2023/09/11 00:09:58;;;;;;;10.18;7.43;;;;;;;24.37;55.05;100850.47;5114532;28;20047;-79
2023/09/11 00:12:53;;;;;;;10.00;7.85;;;;;;;24.36;55.19;100849.66;5114884;28;20047;-79
2023/09/11 00:15:47;;;;;;;8.75;7.10;;;;;;;24.36;55.18;100857.22;5114662;28;20048;-80
2023/09/11 00:18:42;;;;;;;10.98;7.35;;;;;;;24.32;55.35;100843.34;5114590;28;20058;-80
2023/09/11 00:21:34;;;;;;;10.75;7.20;;;;;;;24.28;55.43;100846.13;5114478;28;20556;-79
2023/09/11 00:24:29;;;;;;;11.82;6.82;;;;;;;24.32;55.31;100843.34;5114395;28;20051;-79
2023/09/11 00:27:24;;;;;;;8.93;6.68;;;;;;;24.42;54.92;100841.69;5116153;28;20046;-80
2023/09/11 00:30:16;;;;;;;13.35;6.60;;;;;;;24.36;54.89;100832.19;5114759;28;20046;-79
2023/09/11 00:33:11;;;;;;;8.80;6.72;;;;;;;24.40;54.89;100839.31;5114518;28;20051;-79
2023/09/11 00:36:03;;;;;;;14.35;7.13;;;;;;;24.33;54.91;100838.56;5115243;28;20072;-79
2023/09/11 00:38:58;;;;;;;10.90;7.00;;;;;;;24.29;55.03;100827.47;5118155;28;20039;-79
2023/09/11 00:41:52;;;;;;;10.07;6.43;;;;;;;24.26;54.97;100828.28;5114025;28;20035;-80
2023/09/11 00:44:47;;;;;;;12.18;6.20;;;;;;;24.28;54.97;100831.44;5114035;28;20047;-80
2023/09/11 00:47:42;;;;;;;10.50;7.55;;;;;;;24.22;55.08;100824.72;5113917;28;20047;-79
2023/09/11 00:50:34;;;;;;;;;;;;;;;24.25;54.99;100830.25;5114749;28;20047;-80
2023/09/11 00:53:28;;;;;;;9.32;7.40;;;;;;;24.24;55.09;100827.88;5113646;28;19915;-79
2023/09/11 00:56:23;;;;;;;8.93;6.60;;;;;;;24.20;55.05;100825.13;5113687;28;20042;-79
2023/09/11 00:59:19;;;;;;;11.23;6.60;;;;;;;24.23;54.98;100821.53;5113045;28;20042;-79
2023/09/11 01:02:15;;;;;;;13.77;7.57;;;;;;;24.25;54.89;100826.69;5113525;28;20050;-80
2023/09/11 01:05:09;;;;;;;14.98;6.50;;;;;;;24.19;54.89;100817.19;5113497;28;20038;-79
2023/09/11 01:08:04;;;;;;;9.07;6.18;;;;;;;24.17;55.06;100814.84;5117532;28;20050;-79
2023/09/11 01:10:56;;;;;;;8.32;5.88;;;;;;;24.15;55.06;100813.63;5112928;28;20117;-79
2023/09/11 01:13:51;;;;;;;14.02;7.68;;;;;;;24.19;55.17;100819.97;5112653;28;20065;-79
2023/09/11 01:17:04;;;;;;;10.55;6.15;;;;;;;24.17;55.22;100814.84;5116385;28;20040;-79
2023/09/11 01:20:15;;;;;;;8.45;7.05;;;;;;;24.13;55.17;100810.44;5112676;28;20503;-79
2023/09/11 01:23:36;;;;;;;7.50;5.97;;;;;;;24.13;55.18;100825.13;5113235;28;20046;-80
2023/09/11 01:26:35;;;;;;;13.30;6.57;;;;;;;24.16;54.81;100813.22;5112952;28;20050;-79
2023/09/11 01:29:33;;;;;;;9.63;6.80;;;;;;;24.16;54.93;100810.44;5115649;28;20032;-79
2023/09/11 01:32:28;;;;;;;11.25;6.10;;;;;;;24.12;54.99;100809.66;5112991;28;20046;-79
2023/09/11 01:35:23;;;;;;;7.75;5.63;;;;;;;24.15;54.87;100813.63;5116695;28;20042;-79
2023/09/11 01:38:15;;;;;;;13.65;6.15;;;;;;;24.16;54.60;100815.19;5113969;28;20076;-79
2023/09/11 01:41:10;;;;;;;8.18;5.95;;;;;;;24.17;54.63;100811.25;5112479;28;20039;-79
2023/09/11 01:44:26;;;;;;;9.32;7.53;;;;;;;24.11;54.72;100805.31;5114306;28;20055;-79
2023/09/11 01:47:23;;;;;;;9.60;6.95;;;;;;;24.10;54.79;100809.28;5111798;28;20043;-79
2023/09/11 01:50:19;;;;;;;8.45;5.93;;;;;;;24.11;54.76;100798.94;5112248;28;20047;-79
2023/09/11 01:53:14;;;;;;;8.52;6.32;;;;;;;24.08;54.77;100799.75;5112449;28;20050;-79
2023/09/11 01:56:08;;;;;;;11.45;6.20;;;;;;;24.06;54.44;100800.16;5112348;28;20541;-80
2023/09/11 01:59:04;;;;;;;7.15;5.68;;;;;;;24.13;54.27;100802.09;5117790;28;20039;-79
2023/09/11 02:01:56;;;;;;;6.43;5.50;;;;;;;24.25;53.93;100801.69;5111428;28;20141;-80
2023/09/11 02:04:51;;;;;;;8.50;6.05;;;;;;;24.24;53.72;100792.53;5112215;28;20062;-80
2023/09/11 02:07:45;;;;;;;11.23;6.47;;;;;;;24.24;53.80;100791.75;5113177;28;20129;-79
2023/09/11 02:10:40;;;;;;;11.63;7.07;;;;;;;24.28;53.56;100787.75;5112306;28;20031;-79
2023/09/11 02:13:34;;;;;;;7.68;5.95;;;;;;;24.27;53.74;100788.97;5113858;28;20486;-79
2023/09/11 02:16:29;;;;;;;10.75;6.95;;;;;;;24.27;53.94;100788.19;5108588;28;20078;-80
2023/09/11 02:19:21;;;;;;;21.70;7.20;;;;;;;24.21;54.28;100787.00;5108855;28;20043;-78
2023/09/11 02:22:16;;;;;;;9.90;7.68;;;;;;;24.17;54.26;100789.81;5105060;28;20047;-79
2023/09/11 02:25:08;;;;;;;16.75;7.85;;;;;;;24.14;54.54;100789.78;5106705;28;20039;-79
2023/09/11 02:28:02;;;;;;;10.45;7.18;;;;;;;24.12;54.42;100786.66;5107656;28;20102;-79
2023/09/11 02:30:57;;;;;;;9.68;7.15;;;;;;;24.09;54.79;100784.66;5091307;28;20047;-79
2023/09/11 02:33:52;;;;;;;10.13;7.72;;;;;;;24.09;54.66;100791.00;5107274;28;20038;-80
2023/09/11 02:36:44;;;;;;;12.55;7.45;;;;;;;24.09;54.60;100779.09;5112541;28;20048;-79
2023/09/11 02:39:38;;;;;;;10.32;7.55;;;;;;;24.14;54.31;100782.25;5116058;28;20050;-79
2023/09/11 02:42:33;;;;;;;12.57;7.28;;;;;;;23.94;54.84;100778.38;5113577;28;20040;-79
2023/09/11 02:45:28;;;;;;;12.23;6.68;;;;;;;23.92;54.92;100775.25;5103597;28;20054;-79
2023/09/11 02:48:22;;;;;;;14.55;7.55;;;;;;;24.05;54.45;100772.78;5103738;28;20040;-79
2023/09/11 02:51:17;;;;;;;8.65;7.45;;;;;;;24.11;54.52;100768.38;5108078;28;20040;-79
2023/09/11 02:54:11;;;;;;;12.70;7.78;;;;;;;24.12;54.50;100769.97;5113606;28;20500;-79
2023/09/11 02:57:06;;;;;;;10.70;7.22;;;;;;;24.06;54.90;100772.38;5112147;28;20583;-80
2023/09/11 03:00:01;;;;;;;12.45;7.50;;;;;;;24.02;54.57;100771.63;5110322;28;20063;-80
2023/09/11 03:02:55;;;;;;;13.43;8.35;;;;;;;23.99;54.84;100768.84;5112972;28;20058;-80
2023/09/11 03:05:55;;;;;;;11.13;7.13;;;;;;;23.97;54.72;100771.25;5109795;28;20047;-79
2023/09/11 03:08:50;;;;;;;10.20;7.47;;;;;;;23.88;55.08;100772.47;5110770;28;20031;-79
2023/09/11 03:11:45;;;;;;;11.15;7.00;;;;;;;23.91;55.03;100770.09;5114456;28;20054;-80
2023/09/11 03:14:37;;;;;;;9.93;7.03;;;;;;;24.04;54.70;100768.41;5114412;28;20046;-78
2023/09/11 03:17:32;;;;;;;11.40;6.90;;;;;;;24.11;54.44;100763.63;5117945;28;20050;-79
2023/09/11 03:20:26;;;;;;;16.33;7.47;;;;;;;24.16;54.11;100763.19;5115132;28;20036;-79
2023/09/11 03:23:20;;;;;;;9.63;6.57;;;;;;;24.15;54.19;100766.38;5120140;28;20048;-79
2023/09/11 03:26:19;;;;;;;9.23;6.50;;;;;;;24.13;54.35;100758.44;5117696;28;20066;-79
2023/09/11 03:29:15;;;;;;;10.63;7.15;;;;;;;24.02;54.48;100759.72;5114305;28;20042;-79
2023/09/11 03:32:10;;;;;;;9.82;7.57;;;;;;;24.06;54.32;100763.25;5115321;28;20046;-79
2023/09/11 03:35:04;;;;;;;7.07;6.00;;;;;;;24.01;54.57;100764.47;5107150;28;20047;-79
2023/09/11 03:37:59;;;;;;;11.43;6.38;;;;;;;24.02;54.28;100762.50;5119212;28;20514;-79
2023/09/11 03:40:53;;;;;;;13.40;6.35;;;;;;;24.09;54.17;100763.22;5117183;28;20044;-79
2023/09/11 03:43:48;;;;;;;9.73;6.25;;;;;;;24.12;54.21;100761.63;5106304;28;20059;-79
2023/09/11 03:46:43;;;;;;;7.90;6.15;;;;;;;24.16;53.98;100759.63;5117795;28;20059;-80
2023/09/11 03:49:38;;;;;;;9.35;6.72;;;;;;;24.19;53.61;100758.81;5113504;28;20039;-80
2023/09/11 03:52:32;;;;;;;9.68;6.80;;;;;;;24.25;53.49;100762.75;5119356;28;20051;-78
2023/09/11 03:55:26;;;;;;;9.52;6.47;;;;;;;24.25;53.53;100765.53;5116099;28;20051;-80
2023/09/11 03:58:21;;;;;;;11.95;6.35;;;;;;;24.23;52.94;100768.72;5112226;28;20051;-79
2023/09/11 04:01:16;;;;;;;11.20;7.05;;;;;;;24.15;53.51;100766.38;5094495;28;20039;-79
2023/09/11 04:04:11;;;;;;;15.05;6.05;;;;;;;24.20;53.61;100754.84;5094710;28;20040;-79
2023/09/11 04:07:05;;;;;;;17.33;7.10;;;;;;;24.18;53.72;100754.47;5115083;28;20513;-79
2023/09/11 04:10:00;;;;;;;11.82;5.93;;;;;;;24.05;53.96;100756.09;5112617;28;20036;-80
2023/09/11 04:12:52;;;;;;;11.40;6.53;;;;;;;24.05;53.69;100750.56;5112223;28;20035;-79
2023/09/11 04:15:44;;;;;;;7.97;6.35;;;;;;;24.08;53.58;100755.28;5118327;28;20059;-79
2023/09/11 04:18:38;;;;;;;9.13;5.85;;;;;;;24.08;53.63;100758.06;5109830;28;20047;-79
2023/09/11 04:21:33;;;;;;;7.35;5.70;;;;;;;24.06;53.73;100757.69;5111698;28;20059;-79
2023/09/11 04:24:28;;;;;;;11.18;5.65;;;;;;;24.11;53.56;100757.28;5114399;28;20398;-79
2023/09/11 04:27:20;;;;;;;12.07;6.53;;;;;;;24.10;53.60;100753.69;5114137;28;20043;-79
2023/09/11 04:30:14;;;;;;;9.57;6.50;;;;;;;24.01;53.70;100758.91;5113807;28;20028;-79
2023/09/11 04:33:09;;;;;;;7.95;6.30;;;;;;;23.98;53.66;100753.38;5115420;28;20047;-80
2023/09/11 04:36:03;;;;;;;8.30;5.65;;;;;;;23.99;53.77;100747.41;5118906;28;20516;-80
2023/09/11 04:38:58;;;;;;;12.02;6.60;;;;;;;23.98;53.00;100743.03;5116462;28;20070;-79
2023/09/11 04:41:50;;;;;;;10.77;5.80;;;;;;;24.05;53.29;100758.88;5114107;28;20051;-79
2023/09/11 04:44:45;;;;;;;12.07;5.68;;;;;;;24.10;53.19;100755.69;5118020;28;20047;-79
2023/09/11 04:47:37;;;;;;;7.25;5.40;;;;;;;24.10;53.10;100752.91;5106337;28;20032;-79
2023/09/11 04:50:32;;;;;;;9.02;6.47;;;;;;;24.01;53.34;100760.91;5112467;28;20058;-79
2023/09/11 04:53:26;;;;;;;14.40;6.82;;;;;;;23.77;53.01;100763.38;5116656;28;20038;-79
2023/09/11 04:56:21;;;;;;;10.23;6.95;;;;;;;23.56;53.84;100752.38;5113848;28;20402;-79
2023/09/11 04:59:15;;;;;;;12.63;6.88;;;;;;;23.63;53.36;100757.91;5117441;28;20418;-79
2023/09/11 05:02:10;;;;;;;7.97;5.82;;;;;;;23.67;53.50;100761.44;5108342;28;20509;-78
2023/09/11 05:05:05;;;;;;;11.48;6.00;;;;;;;23.62;53.74;100761.84;5106367;28;20054;-79
2023/09/11 05:08:00;;;;;;;6.82;5.40;;;;;;;23.64;54.21;100756.72;5116067;28;20043;-79
2023/09/11 05:10:54;;;;;;;12.68;5.80;;;;;;;23.76;53.95;100755.47;5110098;28;20039;-79
2023/09/11 05:13:49;;;;;;;26.65;6.90;;;;;;;23.84;53.70;100766.13;5111137;28;20039;-79
2023/09/11 05:16:44;;;;;;;13.63;5.90;;;;;;;23.92;53.29;100766.91;5117166;28;20059;-80
2023/09/11 05:19:39;;;;;;;23.50;6.82;;;;;;;23.94;52.76;100763.72;5108669;28;20050;-80
2023/09/11 05:22:33;;;;;;;10.45;5.93;;;;;;;23.92;52.94;100769.69;5118979;28;20039;-80
2023/09/11 05:25:28;;;;;;;9.40;6.28;;;;;;;23.94;52.70;100772.84;5118054;28;20054;-80
2023/09/11 05:28:22;;;;;;;32.17;6.95;;;;;;;23.98;52.90;100773.59;5116055;28;20043;-80
2023/09/11 05:31:17;;;;;;;15.60;6.45;;;;;;;23.96;52.85;100775.22;5112776;28;20522;-80
2023/09/11 05:34:09;;;;;;;11.35;6.45;;;;;;;23.87;52.98;100772.88;5104310;28;20418;-80
2023/09/11 05:37:03;;;;;;;10.77;6.00;;;;;;;23.92;53.03;100780.00;5110431;28;20043;-80
2023/09/11 05:39:58;;;;;;;14.82;6.05;;;;;;;23.91;53.17;100778.41;5113813;28;20341;-80
2023/09/11 05:42:53;;;;;;;10.27;6.32;;;;;;;23.94;53.16;100780.38;5113499;28;20035;-80
2023/09/11 05:45:47;;;;;;;14.45;7.43;;;;;;;23.97;52.90;100768.47;5113295;28;20038;-80
2023/09/11 05:48:42;;;;;;;11.80;6.70;;;;;;;24.03;52.89;100777.94;5113901;28;20043;-80
2023/09/11 05:51:34;;;;;;;;;;;;;;;24.06;52.83;100775.16;5111996;28;20403;-80
2023/09/11 05:54:29;;;;;;;14.63;6.50;;;;;;;24.10;52.72;100769.56;5106404;28;19915;-80
2023/09/11 05:57:23;;;;;;;15.40;7.30;;;;;;;24.17;52.73;100764.81;5115942;28;20052;-80
2023/09/11 06:00:19;;;;;;;14.55;6.78;;;;;;;24.17;52.71;100780.69;5116800;28;20040;-80
2023/09/11 06:03:13;;;;;;;14.18;6.93;;;;;;;24.22;52.65;100783.03;5115202;28;20047;-80
2023/09/11 06:06:08;;;;;;;16.15;6.47;;;;;;;24.21;52.81;100784.22;5111982;28;20040;-81
2023/09/11 06:09:03;;;;;;;11.70;6.53;;;;;;;24.26;52.86;100783.81;5117327;28;20046;-80
2023/09/11 06:11:58;;;;;;;11.98;6.18;;;;;;;24.27;53.19;100786.19;5116623;28;20055;-80
2023/09/11 06:14:52;;;;;;;13.30;7.60;;;;;;;24.24;53.39;100786.97;5120487;28;20035;-80
2023/09/11 06:17:47;;;;;;;10.45;7.30;;;;;;;24.28;53.36;100789.72;5117902;28;20047;-80
2023/09/11 06:20:41;;;;;;;36.63;9.02;;;;;;;24.18;54.13;100788.59;5117242;28;20047;-80
2023/09/11 06:23:36;;;;;;;34.97;10.57;;;;;;;24.33;53.37;100777.41;5116771;28;20047;-80
2023/09/11 06:26:30;;;;;;;33.65;9.55;;;;;;;24.41;53.54;100787.28;5111942;28;20040;-80
2023/09/11 06:29:25;;;;;;;36.28;9.30;;;;;;;24.49;53.37;100780.47;5118933;28;20415;-81
2023/09/11 06:32:17;;;;;;;19.02;8.07;;;;;;;24.58;53.00;100778.81;5107039;28;20039;-81
2023/09/11 06:35:12;;;;;;;11.98;7.22;;;;;;;24.73;51.97;100775.94;5109582;28;20040;-80
2023/09/11 06:38:06;;;;;;;16.20;7.15;;;;;;;24.81;52.45;100780.22;5112454;28;20050;-81
2023/09/11 06:41:01;;;;;;;14.88;8.18;;;;;;;24.88;52.47;100780.19;5096705;28;20044;-80
2023/09/11 06:43:55;;;;;;;19.20;8.60;;;;;;;24.92;52.50;100769.81;5105130;28;20040;-80
2023/09/11 06:46:45;;;;;;;;;;;;;;;24.98;52.86;100779.31;5106787;28;20516;-80
2023/09/11 06:49:40;;;;;;;17.33;8.20;;;;;;;24.98;52.61;100774.53;5119478;28;19912;-80
2023/09/11 06:52:32;;;;;;;;;;;;;;;24.97;52.21;100780.50;5107641;28;20434;-80
2023/09/11 06:55:27;;;;;;;12.38;7.63;;;;;;;25.06;51.87;100783.59;5107257;28;19915;-81
2023/09/11 06:58:21;;;;;;;14.43;7.05;;;;;;;25.11;52.28;100788.72;5109544;28;20040;-81
2023/09/11 07:01:09;;;;;;;10.68;6.95;;;;;;;25.26;51.30;100790.16;5106569;28;20036;-84
2023/09/11 07:04:03;;;;;;;15.25;7.88;;;;;;;25.19;51.23;100792.22;5113297;28;20054;-81
2023/09/11 07:06:58;;;;;;;8.80;6.90;;;;;;;25.19;51.22;100793.03;5116451;28;20036;-81
2023/09/11 07:09:50;;;;;;;;;;;;;;;25.27;51.02;100796.50;5120654;28;20051;-81
2023/09/11 07:12:42;;;;;;;12.35;7.85;;;;;;;25.82;50.07;100790.75;5113809;28;19912;-80
2023/09/11 07:15:36;;;;;;;13.07;6.55;;;;;;;25.97;49.44;100790.13;5118331;28;20040;-81
2023/09/11 07:18:32;;;;;;;12.90;7.45;;;;;;;25.83;49.44;100789.53;5114155;28;20044;-80
2023/09/11 07:21:26;;;;;;;17.10;7.28;;;;;;;25.72;50.21;100783.31;5116387;28;20082;-81
2023/09/11 07:24:18;;;;;;;16.20;7.30;;;;;;;25.84;49.90;100791.91;5113904;28;20046;-80
2023/09/11 07:27:11;;;;;;;11.38;7.35;;;;;;;25.83;49.76;100793.13;5097954;28;20050;-80
2023/09/11 07:30:08;;;;;;;9.68;7.15;;;;;;;25.71;49.54;100793.66;5111560;28;20036;-80
2023/09/11 07:33:00;;;;;;;21.63;6.53;;;;;;;25.61;49.45;100799.34;5108218;28;20050;-81
2023/09/11 07:35:55;;;;;;;34.17;9.45;;;;;;;25.64;50.17;100793.75;5107065;28;20059;-82
2023/09/11 07:38:49;;;;;;;18.95;8.07;;;;;;;25.74;50.19;100787.25;5115365;28;20059;-80
2023/09/11 07:41:41;;;;;;;17.05;9.20;;;;;;;25.45;50.51;100797.91;5116264;28;20051;-80
2023/09/11 07:44:36;;;;;;;11.02;7.07;;;;;;;25.38;50.81;100792.44;5119557;28;20047;-81
2023/09/11 07:47:30;;;;;;;33.53;9.82;;;;;;;25.35;51.30;100798.81;5119439;28;20050;-79
2023/09/11 07:50:25;;;;;;;17.75;8.85;;;;;;;25.31;51.47;100788.91;5118827;28;20416;-79
2023/09/11 07:53:17;;;;;;;21.50;10.23;;;;;;;25.50;50.85;100797.44;5130803;27;20397;-80
2023/09/11 07:56:15;;;;;;;23.42;9.13;;;;;;;25.64;50.60;100792.97;5139634;27;20039;-79
2023/09/11 07:59:10;;;;;;;16.73;8.57;;;;;;;25.58;51.06;100794.63;5137103;27;20034;-79
2023/09/11 08:02:02;;;;;;;11.90;9.38;;;;;;;25.66;51.25;100796.09;5136403;27;20108;-80
2023/09/11 08:04:56;;;;;;;15.88;9.43;;;;;;;25.64;51.06;100798.53;5133292;27;20112;-79
2023/09/11 08:07:51;;;;;;;14.13;8.82;;;;;;;25.90;50.01;100795.03;5113360;28;20047;-79
2023/09/11 08:10:43;;;;;;;13.88;9.23;;;;;;;26.25;49.82;100797.38;5116799;28;20036;-80
2023/09/11 08:13:34;;;;;;;20.35;9.32;;;;;;;26.21;49.24;100799.34;5114787;28;20098;-85
2023/09/11 08:16:24;;;;;;;11.90;8.52;;;;;;;26.30;48.91;100799.69;5113997;28;20047;-85
2023/09/11 08:19:19;;;;;;;11.88;8.45;;;;;;;26.58;48.45;100797.66;5102595;28;20052;-84
2023/09/11 08:22:11;;;;;;;19.52;9.95;;;;;;;26.65;47.79;100798.34;5102028;28;20044;-85
2023/09/11 08:25:06;;;;;;;17.85;9.70;;;;;;;26.67;48.12;100798.69;5114589;28;20036;-84
2023/09/11 08:27:58;;;;;;;15.65;11.15;;;;;;;26.61;47.92;100794.84;5114066;28;20042;-84
2023/09/11 08:30:50;;;;;;;15.10;9.88;;;;;;;26.66;47.74;100790.78;5118936;28;20040;-84
2023/09/11 08:33:44;;;;;;;12.32;8.50;;;;;;;26.68;47.80;100791.91;5123550;28;20036;-85
2023/09/11 08:36:34;;;;;;;18.33;10.32;;;;;;;26.66;48.13;100790.78;5124334;28;20054;-85
2023/09/11 08:39:29;;;;;;;22.38;9.23;;;;;;;26.81;46.91;100792.91;5124116;28;20039;-85
2023/09/11 08:42:19;;;;;;;;;;;;;;;26.88;47.51;100786.44;5119481;28;20043;-84
2023/09/11 08:45:13;;;;;;;16.25;8.23;;;;;;;26.85;47.22;100794.84;5125077;28;19920;-85
2023/09/11 08:48:08;;;;;;;;;;;;;;;27.03;47.39;100792.53;5123599;28;20517;-85
2023/09/11 08:51:06;;;;;;;15.60;7.53;;;;;;;27.11;46.50;100783.63;5118567;28;20362;-85
2023/09/11 08:54:02;;;;;;;15.93;9.00;;;;;;;27.09;47.11;100785.25;5118135;28;20050;-85
2023/09/11 08:56:58;;;;;;;16.83;8.85;;;;;;;27.24;46.32;100786.59;5118240;28;20044;-85
2023/09/11 08:59:55;;;;;;;13.18;7.35;;;;;;;27.15;46.14;100789.16;5123827;28;20062;-85
2023/09/11 09:02:48;;;;;;;11.50;8.43;;;;;;;26.95;46.71;100785.53;5122987;28;20058;-85
2023/09/11 09:05:43;;;;;;;16.10;9.40;;;;;;;27.19;46.80;100785.06;5123531;28;20047;-85
2023/09/11 09:08:36;;;;;;;23.00;8.45;;;;;;;27.34;46.09;100780.00;5117930;28;20040;-85
2023/09/11 09:11:28;;;;;;;15.45;8.82;;;;;;;27.36;46.09;100783.16;5117638;28;20040;-86
2023/09/11 09:14:21;;;;;;;12.45;8.18;;;;;;;27.43;45.83;100777.44;5117742;28;20043;-85
2023/09/11 09:17:15;;;;;;;19.02;8.60;;;;;;;27.62;46.08;100778.69;5118089;28;20046;-86
2023/09/11 09:20:11;;;;;;;13.40;8.52;;;;;;;27.59;46.21;100780.34;5117551;28;20051;-85
2023/09/11 09:23:06;;;;;;;16.13;8.60;;;;;;;27.83;45.36;100785.84;5118155;28;20051;-84
2023/09/11 09:26:04;;;;;;;;;;;;;;;27.59;45.47;100785.13;5118945;28;20418;-86
2023/09/11 09:28:56;;;;;;;200.75;16.52;;;;;;;27.10;46.61;100778.47;5118096;28;19911;-85
2023/09/11 09:31:50;;;;;;;17.48;7.50;;;;;;;27.13;46.85;100785.97;5118140;28;20028;-84
2023/09/11 09:34:44;;;;;;;;;;;;;;;26.94;47.21;100783.94;5118420;28;20043;-85
2023/09/11 09:37:36;;;;;;;16.75;8.32;;;;;;;26.95;47.11;100782.72;5117787;28;19912;-84
2023/09/11 09:40:42;;;;;;;15.48;9.18;;;;;;;27.11;47.34;100783.63;5117283;28;20047;-86
2023/09/11 09:43:36;;;;;;;14.15;8.27;;;;;;;27.41;46.35;100770.72;5119213;28;20039;-85
2023/09/11 09:46:31;;;;;;;13.50;10.35;;;;;;;27.66;46.24;100771.03;5121069;28;20036;-85
2023/09/11 09:49:23;;;;;;;;;;;;;;;27.58;46.08;100767.56;5121552;28;20398;-85
2023/09/11 09:52:17;;;;;;;13.32;7.25;;;;;;;27.56;45.87;100769.25;5116763;28;19911;-85
2023/09/11 09:55:12;;;;;;;13.43;7.72;;;;;;;27.44;46.16;100761.47;5121016;28;20043;-85
2023/09/11 09:58:06;;;;;;;18.13;12.23;;;;;;;27.68;46.35;100759.44;5117605;28;20059;-86
2023/09/11 10:01:06;;;;;;;21.25;11.23;;;;;;;27.98;45.03;100754.38;5116727;28;20060;-84
2023/09/11 10:04:01;;;;;;;23.42;12.13;;;;;;;27.85;46.14;100756.25;5115313;28;20035;-84
2023/09/11 10:06:58;;;;;;;18.90;10.07;;;;;;;28.02;45.73;100752.28;5100748;28;20040;-84
2023/09/11 10:09:53;;;;;;;24.10;13.27;;;;;;;28.14;45.29;100742.44;5101731;28;20032;-85
2023/09/11 10:12:48;;;;;;;16.00;9.80;;;;;;;27.99;45.32;100743.94;5112779;28;20413;-86
2023/09/11 10:15:40;;;;;;;;;;;;;;;28.18;45.09;100739.56;5116645;28;20050;-85
2023/09/11 10:18:35;;;;;;;18.10;11.02;;;;;;;28.06;45.60;100738.22;5112081;28;19915;-85
2023/09/11 10:21:31;;;;;;;19.60;12.35;;;;;;;28.16;45.44;100737.19;5112311;28;20039;-85
2023/09/11 10:24:20;;;;;;;11.73;8.43;;;;;;;28.04;45.28;100727.44;5119673;27;20032;-86
2023/09/11 10:27:15;;;;;;;16.45;10.85;;;;;;;28.03;45.49;100725.91;5112894;28;20402;-84
2023/09/11 10:30:11;;;;;;;;;;;;;;;27.93;47.04;100724.13;5114847;28;20398;-85
2023/09/11 10:33:34;;;;;;;15.98;9.68;;;;;;;27.90;46.16;100716.59;5113059;28;19911;-86
2023/09/11 10:36:32;;;;;;;16.90;7.57;;;;;;;28.25;45.21;100717.00;5120400;28;20055;-86
2023/09/11 10:39:26;;;;;;;14.57;8.60;;;;;;;27.75;45.83;100717.34;5117578;28;20043;-87
2023/09/11 10:42:16;;;;;;;;;;;;;;;28.00;44.91;100709.97;5117569;28;20410;-86
2023/09/11 10:45:26;;;;;;;13.73;7.30;;;;;;;27.65;46.42;100708.75;5123065;28;19911;-87
2023/09/11 10:48:41;;;;;;;9.50;6.50;;;;;;;27.63;45.64;100707.63;5108724;28;20039;-86
2023/09/11 10:51:37;;;;;;;11.57;6.00;;;;;;;27.45;45.66;100702.38;5115778;28;20044;-86
2023/09/11 10:54:28;;;;;;;10.05;5.93;;;;;;;27.52;45.85;100704.28;5114504;28;20035;-83
2023/09/11 10:57:21;;;;;;;7.45;4.97;;;;;;;27.55;44.94;100697.81;5115301;28;20050;-87
2023/09/11 11:00:17;;;;;;;8.18;5.32;;;;;;;27.80;43.96;100698.06;5103152;28;20047;-86
2023/09/11 11:03:16;;;;;;;9.90;5.28;;;;;;;28.08;42.33;100700.22;5107422;28;20513;-86
2023/09/11 11:06:18;;;;;;;7.07;4.95;;;;;;;27.73;43.14;100687.06;5107146;28;20387;-85
2023/09/11 11:09:27;;;;;;;13.68;5.20;;;;;;;28.64;42.27;100691.66;5103887;28;20039;-85
2023/09/11 11:12:35;;;;;;;8.35;5.93;;;;;;;29.26;39.53;100690.38;5104482;28;20032;-85
2023/09/11 11:15:33;;;;;;;11.38;5.60;;;;;;;29.41;39.87;100687.97;5114882;28;20051;-85
2023/09/11 11:18:32;;;;;;;8.98;5.55;;;;;;;29.49;39.84;100685.75;5106687;28;20038;-86
2023/09/11 11:21:39;;;;;;;13.63;6.70;;;;;;;29.64;40.49;100684.88;5099653;28;20043;-84
2023/09/11 11:24:34;;;;;;;17.80;6.57;;;;;;;29.59;40.15;100679.84;5106291;28;20457;-87
2023/09/11 11:27:29;;;;;;;15.32;7.43;;;;;;;29.31;41.32;100678.66;5099652;28;20048;-85
2023/09/11 11:30:22;;;;;;;12.05;5.40;;;;;;;29.23;41.18;100679.28;5118008;28;20391;-85
2023/09/11 11:33:24;;;;;;;14.88;6.53;;;;;;;29.42;40.57;100681.13;5126060;28;20121;-86
2023/09/11 11:36:14;;;;;;;10.90;5.43;;;;;;;29.15;41.73;100678.72;5126278;28;20406;-86
2023/09/11 11:39:08;;;;;;;8.98;5.60;;;;;;;28.84;41.82;100672.75;5099902;28;20062;-85
2023/09/11 11:42:00;;;;;;;;;;;;;;;29.33;41.59;100673.38;5100495;28;20047;-86
2023/09/11 11:44:55;;;;;;;7.50;6.03;;;;;;;29.38;42.31;100665.66;5108647;28;19935;-85
2023/09/11 11:47:49;;;;;;;8.02;6.00;;;;;;;29.61;41.06;100662.56;5104057;28;20063;-85
2023/09/11 11:50:44;;;;;;;8.00;6.28;;;;;;;29.78;40.64;100664.03;5118798;28;20410;-85
2023/09/11 11:53:36;;;;;;;14.77;5.45;;;;;;;29.35;41.75;100664.56;5108032;28;20047;-87
2023/09/11 11:56:28;;;;;;;9.77;5.70;;;;;;;29.52;41.42;100657.63;5115009;28;20113;-86
2023/09/11 11:59:21;;;;;;;11.02;5.55;;;;;;;29.29;41.44;100661.47;5120398;28;20055;-86
2023/09/11 12:02:26;;;;;;;9.25;5.10;;;;;;;28.91;42.65;100666.94;5118000;28;20044;-86
2023/09/11 12:05:21;;;;;;;8.32;4.95;;;;;;;28.72;42.70;100664.28;5119970;28;20543;-85
2023/09/11 12:08:15;;;;;;;7.55;5.55;;;;;;;28.97;41.83;100663.59;5118790;28;20051;-86
2023/09/11 12:11:08;;;;;;;;;;;;;;;29.42;40.96;100653.13;5114820;28;20073;-86
2023/09/11 12:14:03;;;;;;;10.27;5.10;;;;;;;29.70;39.60;100657.88;5113230;28;19912;-84
2023/09/11 12:16:57;;;;;;;7.15;5.38;;;;;;;29.95;39.25;100651.50;5125140;28;20040;-86
2023/09/11 12:19:47;;;;;;;7.68;4.88;;;;;;;29.16;41.41;100654.25;5123910;28;20058;-85
2023/09/11 12:22:42;;;;;;;20.23;5.93;;;;;;;29.24;40.69;100650.81;5119926;28;20054;-86
2023/09/11 12:25:37;;;;;;;8.55;5.22;;;;;;;29.21;40.48;100653.72;5122372;28;20043;-85
2023/09/11 12:28:32;;;;;;;7.00;4.65;;;;;;;29.62;39.15;100638.91;5118967;28;20521;-85
2023/09/11 12:31:24;;;;;;;13.18;4.93;;;;;;;29.66;39.71;100642.41;5120953;28;20042;-86
2023/09/11 12:34:19;;;;;;;6.68;5.05;;;;;;;29.21;40.13;100632.09;5120393;28;20039;-85
2023/09/11 12:37:13;;;;;;;11.43;4.43;;;;;;;29.60;39.64;100630.16;5119259;28;20043;-85
2023/09/11 12:40:08;;;;;;;5.47;4.45;;;;;;;29.67;39.00;100621.53;5118068;28;20035;-86
2023/09/11 12:43:05;;;;;;;8.68;5.07;;;;;;;29.31;40.09;100627.44;5117656;28;20058;-85
2023/09/11 12:45:57;;;;;;;5.80;4.53;;;;;;;29.29;39.66;100621.47;5123359;28;20055;-84
2023/09/11 12:48:51;;;;;;;5.43;4.50;;;;;;;29.52;40.05;100618.38;5119959;28;20041;-83
2023/09/11 12:51:41;;;;;;;7.40;4.70;;;;;;;29.52;40.08;100614.78;5116778;28;20043;-85
2023/09/11 12:54:36;;;;;;;8.40;5.35;;;;;;;29.19;40.62;100614.94;5096897;28;20047;-84
2023/09/11 12:57:31;;;;;;;9.02;4.68;;;;;;;29.03;40.91;100611.44;5098512;28;20051;-85
2023/09/11 13:00:28;;;;;;;9.23;5.32;;;;;;;29.58;39.14;100601.78;5096164;28;20051;-85
2023/09/11 13:03:20;;;;;;;7.05;4.90;;;;;;;29.41;40.16;100601.09;5096531;28;20047;-86
2023/09/11 13:06:16;;;;;;;7.22;5.05;;;;;;;29.05;40.73;100598.56;5098647;28;20039;-85
2023/09/11 13:09:11;;;;;;;7.55;4.72;;;;;;;29.36;39.71;100598.84;5108007;28;20552;-85
2023/09/11 13:12:00;;;;;;;7.10;4.57;;;;;;;29.76;38.09;100590.81;5111424;28;20038;-85
2023/09/11 13:14:55;;;;;;;7.57;4.50;;;;;;;30.28;36.71;100597.91;5100953;28;20039;-85
2023/09/11 13:17:48;;;;;;;6.20;4.60;;;;;;;30.33;37.63;100591.72;5111648;27;20062;-85
2023/09/11 13:20:42;;;;;;;6.35;4.63;;;;;;;30.30;36.91;100589.84;5112381;28;20533;-85
2023/09/11 13:23:35;;;;;;;7.25;4.13;;;;;;;30.66;35.77;100586.59;5116688;28;20055;-85
2023/09/11 13:26:30;;;;;;;6.43;4.45;;;;;;;30.66;36.24;100589.38;5117559;28;20046;-86
2023/09/11 13:29:22;;;;;;;9.02;5.25;;;;;;;30.95;35.03;100590.69;5116082;28;20050;-85
2023/09/11 13:32:14;;;;;;;10.82;4.43;;;;;;;30.72;35.92;100577.13;5112394;27;20034;-85